Terminal Aerodrome Forecast
Issued by NWS Atlanta, GA

Current Version | Previous Version | Text Only | Print | Product List | Glossary On
Versions: 1 2 3 4 5 6 7 8 9 10 11 12 13
000
FTUS42 KFFC 252320
TAFCSG
TAF
KCSG 252320Z 2600/2624 30008KT P6SM VCSH SCT060
     FM260200 35006KT P6SM SCT070
     FM261000 06008KT P6SM BKN015
     FM261500 07009KT P6SM BKN035
     FM261700 08010KT P6SM SCT050 PROB30 2620/2624 5SM -TSRA
      BKN035CB=

USA.gov is the U.S. government's official web portal to all federal, state and local government web resources and services.